Time;durP1;ratioP1;P1;durP2;ratioP2;P2;SDS_P1;SDS_P2;PMS_P1;PMS_P2;Temp;Humidity;BMP_temperature;BMP_pressure;BME280_temperature;BME280_humidity;BME280_pressure;Samples;Min_cycle;Max_cycle;Signal;HPM_P1;HPM_P2
2022/01/11 00:00:03;;;;;;;52.45;10.88;;;;;;;-2.43;100.00;100710.09;4994107;28;20030;-63
2022/01/11 00:02:29;;;;;;;33.35;8.45;;;;;;;-2.31;100.00;100715.34;4992482;28;20102;-62
2022/01/11 00:04:55;;;;;;;41.03;9.57;;;;;;;-2.45;100.00;100716.44;4995545;28;20030;-63
2022/01/11 00:07:22;;;;;;;46.35;9.75;;;;;;;-2.41;100.00;100718.72;4994625;28;20065;-62
2022/01/11 00:09:50;;;;;;;33.65;8.90;;;;;;;-2.41;100.00;100723.97;4991426;28;20049;-62
2022/01/11 00:12:16;;;;;;;48.05;10.63;;;;;;;-2.50;100.00;100723.84;4988018;28;20747;-62
2022/01/11 00:14:41;;;;;;;68.53;9.45;;;;;;;-2.54;100.00;100722.44;4992649;28;20121;-62
2022/01/11 00:17:07;;;;;;;35.95;8.65;;;;;;;-2.69;100.00;100721.84;4989752;28;20042;-62
2022/01/11 00:19:33;;;;;;;71.22;10.38;;;;;;;-2.52;100.00;100716.13;4990189;28;20526;-62
2022/01/11 00:22:01;;;;;;;72.57;11.77;;;;;;;-2.48;100.00;100728.03;4997196;28;20168;-63
2022/01/11 00:24:33;;;;;;;43.55;10.00;;;;;;;-2.39;100.00;100727.31;4990014;28;20574;-62
2022/01/11 00:27:03;;;;;;;78.82;10.95;;;;;;;-2.27;100.00;100735.16;4988744;28;20046;-62
2022/01/11 00:29:29;;;;;;;85.22;10.45;;;;;;;-2.24;100.00;100740.19;4993715;28;20054;-62
2022/01/11 00:31:58;;;;;;;48.05;9.68;;;;;;;-2.65;100.00;100739.00;4988615;28;20121;-62
2022/01/11 00:34:25;;;;;;;79.20;9.60;;;;;;;-2.79;100.00;100739.28;4997213;28;20059;-62
2022/01/11 00:36:50;;;;;;;84.60;9.75;;;;;;;-2.76;100.00;100750.38;5000370;28;20064;-62
2022/01/11 00:39:16;;;;;;;81.85;11.13;;;;;;;-2.92;100.00;100748.09;4995830;28;20469;-62
2022/01/11 00:41:42;;;;;;;88.40;7.30;;;;;;;-3.05;100.00;100744.72;4990518;28;20065;-62
2022/01/11 00:44:08;;;;;;;84.75;8.88;;;;;;;-3.06;100.00;100761.44;4984829;28;20030;-66
2022/01/11 00:46:34;;;;;;;163.00;11.50;;;;;;;-3.03;100.00;100758.56;4996758;28;20065;-62
2022/01/11 00:48:59;;;;;;;114.72;10.45;;;;;;;-3.11;100.00;100755.69;5005103;28;20037;-62
2022/01/11 00:51:25;;;;;;;197.93;12.57;;;;;;;-2.96;100.00;100759.78;4990069;28;20049;-62
2022/01/11 00:53:50;;;;;;;110.82;11.77;;;;;;;-2.87;100.00;100760.84;4989250;28;20034;-62
2022/01/11 00:56:15;;;;;;;225.65;12.20;;;;;;;-2.82;100.00;100764.81;4991459;28;20042;-62
2022/01/11 00:58:41;;;;;;;192.40;11.20;;;;;;;-2.94;100.00;100767.53;4988794;28;20031;-62
2022/01/11 01:01:07;;;;;;;97.07;10.77;;;;;;;-2.76;100.00;100765.28;4989372;28;20054;-62
2022/01/11 01:03:32;;;;;;;131.15;11.82;;;;;;;-2.82;100.00;100756.94;4999717;28;20037;-62
2022/01/11 01:05:58;;;;;;;111.30;11.50;;;;;;;-2.72;100.00;100761.44;4998647;28;20050;-62
2022/01/11 01:08:23;;;;;;;66.32;10.48;;;;;;;-2.59;100.00;100762.19;4991592;28;20065;-62
2022/01/11 01:10:50;;;;;;;76.55;10.27;;;;;;;-2.61;100.00;100764.09;5000906;28;20043;-62
2022/01/11 01:13:23;;;;;;;85.25;10.23;;;;;;;-2.66;100.00;100771.47;4993208;28;20034;-62
2022/01/11 01:15:49;;;;;;;77.60;9.93;;;;;;;-2.86;100.00;100765.97;4997645;28;20076;-62
2022/01/11 01:18:21;;;;;;;99.50;10.02;;;;;;;-2.88;100.00;100770.50;4995717;28;20038;-62
2022/01/11 01:20:47;;;;;;;72.68;8.10;;;;;;;-2.91;100.00;100775.16;4999620;28;20184;-62
2022/01/11 01:23:12;;;;;;;77.72;8.60;;;;;;;-3.17;100.00;100772.75;4995101;28;20045;-62
2022/01/11 01:25:38;;;;;;;33.65;8.55;;;;;;;-2.92;100.00;100782.22;4993746;28;20050;-62
2022/01/11 01:28:03;;;;;;;36.75;8.38;;;;;;;-2.88;100.00;100778.38;4988075;28;20038;-63
2022/01/11 01:30:29;;;;;;;25.67;7.45;;;;;;;-2.84;100.00;100774.56;4993504;28;20053;-63
2022/01/11 01:32:54;;;;;;;36.70;8.52;;;;;;;-2.73;100.00;100780.78;4997756;28;20610;-62
2022/01/11 01:35:21;;;;;;;74.68;9.30;;;;;;;-2.89;100.00;100779.34;4997767;28;20050;-62
2022/01/11 01:37:47;;;;;;;41.97;8.18;;;;;;;-2.95;100.00;100781.59;5000723;28;20018;-63
2022/01/11 01:40:13;;;;;;;63.95;7.50;;;;;;;-3.07;100.00;100784.22;4997999;28;20036;-62
2022/01/11 01:42:39;;;;;;;66.53;7.80;;;;;;;-3.17;100.00;100785.88;5026579;28;20030;-61
2022/01/11 01:45:05;;;;;;;53.05;8.02;;;;;;;-3.10;100.00;100788.84;4994595;28;20036;-61
2022/01/11 01:47:31;;;;;;;68.50;6.75;;;;;;;-3.06;100.00;100791.13;4991527;28;20412;-63
2022/01/11 01:49:56;;;;;;;55.47;7.65;;;;;;;-3.04;100.00;100788.38;4998016;28;20022;-61
2022/01/11 01:52:22;;;;;;;85.38;7.88;;;;;;;-3.11;100.00;100792.41;4993796;28;20146;-61
2022/01/11 01:54:48;;;;;;;83.53;7.82;;;;;;;-3.13;100.00;100784.66;4997070;28;20885;-61
2022/01/11 01:57:14;;;;;;;66.35;8.60;;;;;;;-3.25;100.00;100803.94;5029264;28;20046;-61
2022/01/11 01:59:39;;;;;;;72.80;7.60;;;;;;;-3.44;100.00;100798.38;5027769;28;20045;-61
2022/01/11 02:02:07;;;;;;;67.45;8.73;;;;;;;-3.39;100.00;100804.16;5027334;28;20142;-61
2022/01/11 02:04:33;;;;;;;39.25;8.23;;;;;;;-3.11;100.00;100795.03;5000527;28;20041;-61
2022/01/11 02:06:58;;;;;;;135.40;9.80;;;;;;;-3.32;100.00;100792.22;4989944;28;20351;-61
2022/01/11 02:09:24;;;;;;;119.53;9.25;;;;;;;-3.32;100.00;100800.97;4992449;28;20038;-61
2022/01/11 02:11:49;;;;;;;70.95;8.32;;;;;;;-3.09;100.00;100801.84;4990317;28;20068;-61
2022/01/11 02:14:15;;;;;;;76.20;8.73;;;;;;;-3.08;100.00;100800.88;4996597;28;20034;-62
2022/01/11 02:16:40;;;;;;;92.85;10.05;;;;;;;-3.08;100.00;100797.44;4998630;28;20045;-61
2022/01/11 02:19:06;;;;;;;85.03;10.55;;;;;;;-2.97;100.00;100805.34;5001825;28;20037;-61
2022/01/11 02:21:31;;;;;;;45.22;8.65;;;;;;;-2.95;100.00;100807.81;4991830;28;20051;-61
2022/01/11 02:23:57;;;;;;;93.38;8.25;;;;;;;-2.98;100.00;100801.03;4991653;28;20513;-61
2022/01/11 02:26:23;;;;;;;140.60;11.57;;;;;;;-3.27;100.00;100804.06;4993322;28;20073;-61
2022/01/11 02:28:48;;;;;;;12.70;3.50;;;;;;;-3.71;100.00;100816.03;4993406;28;20074;-63
2022/01/11 02:31:14;;;;;;;51.25;7.07;;;;;;;-3.70;100.00;100812.47;4995830;28;20084;-61
2022/01/11 02:33:47;;;;;;;135.85;10.18;;;;;;;-3.74;100.00;100816.28;4997415;28;20518;-61
2022/01/11 02:36:21;;;;;;;147.43;9.70;;;;;;;-3.66;100.00;100814.88;4990903;28;20046;-61
2022/01/11 02:38:47;;;;;;;158.88;11.43;;;;;;;-3.33;100.00;100817.63;4995183;28;20420;-61
2022/01/11 02:41:12;;;;;;;154.80;11.57;;;;;;;-3.49;100.00;100828.41;4990113;28;20104;-61
2022/01/11 02:43:42;;;;;;;68.00;8.80;;;;;;;-3.46;100.00;100824.72;4996970;28;20419;-61
2022/01/11 02:46:07;;;;;;;152.10;10.82;;;;;;;-3.40;100.00;100829.50;4999855;28;20042;-61
2022/01/11 02:48:33;;;;;;;116.40;9.15;;;;;;;-3.45;100.00;100826.41;4991311;28;20105;-61
2022/01/11 02:50:58;;;;;;;65.90;7.93;;;;;;;-3.60;100.00;100830.97;4992818;28;20053;-61
2022/01/11 02:53:24;;;;;;;91.57;9.25;;;;;;;-3.57;100.00;100833.41;4987815;28;20034;-61
2022/01/11 02:55:49;;;;;;;90.10;9.98;;;;;;;-3.52;100.00;100831.28;4992382;28;20053;-61
2022/01/11 02:58:15;;;;;;;57.20;7.32;;;;;;;-3.54;100.00;100832.34;4986153;28;20034;-61
2022/01/11 03:00:40;;;;;;;87.28;8.85;;;;;;;-3.48;100.00;100837.13;4992753;28;20049;-61
2022/01/11 03:03:13;;;;;;;48.85;7.55;;;;;;;-3.39;100.00;100841.69;5026806;28;20032;-61
2022/01/11 03:05:49;;;;;;;96.07;9.85;;;;;;;-3.27;100.00;100843.41;4996217;28;20126;-63
2022/01/11 03:08:14;;;;;;;45.13;8.57;;;;;;;-3.41;100.00;100838.34;4992457;28;20050;-61
2022/01/11 03:10:40;;;;;;;69.57;9.43;;;;;;;-3.36;100.00;100838.84;4987545;28;20034;-61
2022/01/11 03:13:06;;;;;;;75.55;8.63;;;;;;;-3.37;100.00;100842.41;4995260;28;20324;-62
2022/01/11 03:15:32;;;;;;;99.25;8.45;;;;;;;-3.40;100.00;100844.41;4989614;28;20073;-61
2022/01/11 03:17:57;;;;;;;60.72;8.88;;;;;;;-3.29;100.00;100847.09;4993178;28;20403;-61
2022/01/11 03:20:22;;;;;;;73.53;8.57;;;;;;;-3.18;100.00;100848.91;4993690;28;20050;-61
2022/01/11 03:22:48;;;;;;;89.45;10.55;;;;;;;-3.23;100.00;100845.78;4990915;28;20030;-61
2022/01/11 03:25:13;;;;;;;80.00;9.13;;;;;;;-3.14;100.00;100845.13;5002856;28;20066;-62
2022/01/11 03:27:40;;;;;;;88.80;8.10;;;;;;;-3.21;100.00;100851.78;4995862;28;20026;-61
2022/01/11 03:30:06;;;;;;;61.00;9.18;;;;;;;-3.27;100.00;100853.03;4979100;28;20015;-61
2022/01/11 03:32:31;;;;;;;108.00;11.13;;;;;;;-3.20;100.00;100861.28;4990091;28;20443;-61
2022/01/11 03:34:57;;;;;;;67.90;9.93;;;;;;;-3.15;100.00;100861.78;4994631;28;20026;-61
2022/01/11 03:37:22;;;;;;;60.25;10.60;;;;;;;-3.03;100.00;100864.34;5026567;28;20046;-61
2022/01/11 03:39:48;;;;;;;57.38;10.75;;;;;;;-2.94;100.00;100862.00;4988130;28;20034;-61
2022/01/11 03:42:13;;;;;;;73.65;11.85;;;;;;;-2.87;100.00;100861.41;4987671;28;20516;-61
2022/01/11 03:44:39;;;;;;;117.57;12.35;;;;;;;-2.76;100.00;100855.34;4994127;28;20026;-61
2022/01/11 03:47:05;;;;;;;35.45;11.05;;;;;;;-2.68;100.00;100854.75;4999381;28;20049;-60
2022/01/11 03:49:30;;;;;;;145.70;13.35;;;;;;;-2.87;100.00;100864.03;4992994;28;20153;-61
2022/01/11 03:51:56;;;;;;;163.20;12.80;;;;;;;-2.91;100.00;100862.59;4992187;28;20555;-61
2022/01/11 03:54:40;;;;;;;144.68;11.60;;;;;;;-3.10;100.00;100857.88;4988904;28;20531;-61
2022/01/11 03:57:05;;;;;;;111.00;9.77;;;;;;;-3.18;100.00;100859.41;4997845;28;20184;-62
2022/01/11 03:59:31;;;;;;;62.85;9.60;;;;;;;-3.00;100.00;100857.19;4993495;28;20042;-63
2022/01/11 04:01:56;;;;;;;59.95;9.15;;;;;;;-3.07;100.00;100854.19;4998743;28;20050;-63
2022/01/11 04:04:21;;;;;;;82.07;9.10;;;;;;;-3.18;100.00;100847.13;4990901;28;20042;-62
2022/01/11 04:06:47;;;;;;;57.05;8.20;;;;;;;-3.13;100.00;100857.28;4990438;28;20042;-63
2022/01/11 04:09:12;;;;;;;72.72;7.65;;;;;;;-3.41;100.00;100863.72;4990260;28;20104;-64
2022/01/11 04:11:38;;;;;;;88.03;8.65;;;;;;;-3.35;100.00;100856.22;4995959;28;20058;-62
2022/01/11 04:14:04;;;;;;;60.83;7.30;;;;;;;-3.41;100.00;100864.56;4994450;28;20030;-63
2022/01/11 04:16:29;;;;;;;100.88;10.15;;;;;;;-3.65;100.00;100861.09;4992968;28;20066;-63
2022/01/11 04:18:54;;;;;;;37.50;4.90;;;;;;;-3.73;100.00;100857.25;4995307;28;20037;-62
2022/01/11 04:21:20;;;;;;;68.18;9.00;;;;;;;-3.69;100.00;100861.31;4989355;28;20417;-63
2022/01/11 04:23:45;;;;;;;39.42;6.65;;;;;;;-3.62;100.00;100850.38;4990505;28;20046;-63
2022/01/11 04:26:11;;;;;;;53.80;7.43;;;;;;;-3.75;100.00;100863.53;4990777;28;20057;-63
2022/01/11 04:28:36;;;;;;;26.38;6.25;;;;;;;-3.47;100.00;100860.59;4994147;28;20033;-62
2022/01/11 04:31:01;;;;;;;39.20;6.20;;;;;;;-3.58;100.00;100859.69;5005458;28;20046;-63
2022/01/11 04:33:27;;;;;;;32.83;6.22;;;;;;;-3.75;100.00;100860.91;4990959;28;20381;-63
2022/01/11 04:35:53;;;;;;;31.35;6.10;;;;;;;-3.74;100.00;100860.81;5012175;28;20511;-62
2022/01/11 04:38:22;;;;;;;39.25;5.00;;;;;;;-3.96;100.00;100858.06;4997034;28;20408;-62
2022/01/11 04:40:48;;;;;;;54.10;6.82;;;;;;;-3.79;100.00;100851.63;5000779;28;20050;-63
2022/01/11 04:43:13;;;;;;;41.53;6.30;;;;;;;-3.77;100.00;100858.41;5013581;28;20034;-62
2022/01/11 04:45:39;;;;;;;26.35;4.85;;;;;;;-3.73;100.00;100857.25;4993567;28;20045;-63
2022/01/11 04:48:05;;;;;;;47.45;6.28;;;;;;;-3.79;100.00;100857.69;4994078;28;20809;-62
2022/01/11 04:50:30;;;;;;;51.25;6.72;;;;;;;-3.82;100.00;100864.91;4999639;28;20066;-63
2022/01/11 04:52:57;;;;;;;41.67;7.10;;;;;;;-3.94;100.00;100874.50;5000332;28;20027;-62
2022/01/11 04:55:22;;;;;;;81.38;8.02;;;;;;;-3.98;100.00;100870.41;4993335;28;20058;-62
2022/01/11 04:57:47;;;;;;;54.67;7.05;;;;;;;-3.71;100.00;100878.94;5006765;28;20048;-62
2022/01/11 05:00:14;;;;;;;30.77;7.22;;;;;;;-3.64;100.00;100881.09;4996774;28;20034;-63
2022/01/11 05:02:40;;;;;;;46.17;6.28;;;;;;;-3.35;100.00;100876.38;4992939;28;20733;-63
2022/01/11 05:05:06;;;;;;;37.95;7.03;;;;;;;-3.29;100.00;100883.81;5010147;28;20520;-63
2022/01/11 05:07:31;;;;;;;59.42;8.43;;;;;;;-3.57;100.00;100887.56;4990725;28;20026;-63
2022/01/11 05:09:57;;;;;;;37.70;6.72;;;;;;;-3.64;100.00;100887.19;4998404;28;20034;-63
2022/01/11 05:12:22;;;;;;;52.50;6.97;;;;;;;-3.46;100.00;100885.03;4997673;28;20054;-63
2022/01/11 05:14:48;;;;;;;41.67;7.32;;;;;;;-3.58;100.00;100888.53;4998200;28;20049;-63
2022/01/11 05:17:14;;;;;;;56.55;6.90;;;;;;;-3.47;100.00;100891.19;5000687;28;20046;-63
2022/01/11 05:19:39;;;;;;;45.67;7.40;;;;;;;-3.42;100.00;100888.25;4998247;28;20373;-62
2022/01/11 05:22:05;;;;;;;61.13;7.65;;;;;;;-3.64;100.00;100889.81;4995911;28;20038;-63
2022/01/11 05:24:30;;;;;;;62.38;6.72;;;;;;;-3.61;100.00;100894.84;4997855;28;20030;-63
2022/01/11 05:26:56;;;;;;;64.05;7.75;;;;;;;-3.62;100.00;100893.19;4991070;28;20038;-63
2022/01/11 05:29:21;;;;;;;14.52;4.20;;;;;;;-4.01;100.00;100889.81;5001853;28;20436;-62
2022/01/11 05:31:46;;;;;;;63.85;6.53;;;;;;;-3.72;100.00;100895.63;4993276;28;20448;-62
2022/01/11 05:34:12;;;;;;;52.78;6.97;;;;;;;-3.85;100.00;100892.16;5008061;28;20037;-62
2022/01/11 05:36:37;;;;;;;29.83;6.50;;;;;;;-3.71;100.00;100888.59;5001533;28;20144;-62
2022/01/11 05:39:03;;;;;;;88.28;7.63;;;;;;;-3.92;100.00;100891.78;5002959;28;20045;-63
2022/01/11 05:41:30;;;;;;;78.85;6.80;;;;;;;-4.16;100.00;100899.56;5001620;28;20137;-62
2022/01/11 05:43:56;;;;;;;25.60;6.28;;;;;;;-4.06;100.00;100896.31;5015066;28;20037;-62
2022/01/11 05:46:21;;;;;;;35.05;6.22;;;;;;;-3.95;100.00;100905.06;4997097;28;20061;-63
2022/01/11 05:48:47;;;;;;;38.08;6.65;;;;;;;-4.08;100.00;100900.81;4988512;28;20093;-63
2022/01/11 05:51:12;;;;;;;72.22;7.40;;;;;;;-3.98;100.00;100901.84;4992547;28;20096;-62
2022/01/11 05:53:38;;;;;;;75.45;7.20;;;;;;;-3.86;100.00;100903.63;5022417;28;20037;-62
2022/01/11 05:56:04;;;;;;;65.25;7.28;;;;;;;-3.88;100.00;100902.88;4996905;28;20053;-63
2022/01/11 05:58:29;;;;;;;63.45;7.32;;;;;;;-3.91;100.00;100908.34;5001033;28;20397;-63
2022/01/11 06:00:54;;;;;;;36.90;7.38;;;;;;;-3.79;100.00;100914.50;4990070;28;20046;-63
2022/01/11 06:03:20;;;;;;;67.78;7.82;;;;;;;-3.76;100.00;100912.50;5013493;28;20081;-63
2022/01/11 06:05:46;;;;;;;49.08;9.43;;;;;;;-3.65;100.00;100916.13;4999302;28;20042;-63
2022/01/11 06:08:16;;;;;;;61.53;8.52;;;;;;;-3.66;100.00;100917.91;5008424;28;20064;-63
2022/01/11 06:10:42;;;;;;;72.35;8.18;;;;;;;-3.73;100.00;100928.00;4994486;28;20122;-63
2022/01/11 06:13:07;;;;;;;81.18;9.15;;;;;;;-3.78;100.00;100918.78;4996892;28;20040;-63
2022/01/11 06:15:34;;;;;;;14.45;4.93;;;;;;;-3.83;100.00;100921.72;4995798;28;20049;-63
2022/01/11 06:17:59;;;;;;;42.00;5.38;;;;;;;-4.24;100.00;100921.97;5010760;28;20040;-62
2022/01/11 06:20:25;;;;;;;67.97;7.05;;;;;;;-4.05;100.00;100930.25;5000276;28;20046;-63
2022/01/11 06:22:50;;;;;;;42.90;6.75;;;;;;;-3.98;100.00;100935.91;4993678;28;20471;-61
2022/01/11 06:25:16;;;;;;;37.90;7.97;;;;;;;-3.82;100.00;100933.03;4995232;28;20037;-64
2022/01/11 06:27:42;;;;;;;54.17;7.50;;;;;;;-3.69;100.00;100933.88;4984125;28;20038;-61
2022/01/11 06:30:08;;;;;;;30.67;7.05;;;;;;;-3.51;100.00;100936.97;4992739;28;20041;-63
2022/01/11 06:32:34;;;;;;;29.42;7.35;;;;;;;-3.35;100.00;100937.50;4999924;28;20342;-61
2022/01/11 06:34:59;;;;;;;33.40;7.28;;;;;;;-3.42;100.00;100940.69;4994857;28;20041;-61
2022/01/11 06:37:25;;;;;;;43.63;7.32;;;;;;;-3.41;100.00;100942.38;4995601;28;20089;-61
2022/01/11 06:39:50;;;;;;;37.17;7.65;;;;;;;-3.47;100.00;100933.16;4990968;28;20034;-63
2022/01/11 06:42:16;;;;;;;30.63;5.78;;;;;;;-3.52;100.00;100930.03;4992120;28;20042;-62
2022/01/11 06:44:42;;;;;;;40.88;7.25;;;;;;;-3.42;100.00;100938.94;4984615;28;21026;-63
2022/01/11 06:47:08;;;;;;;34.05;6.75;;;;;;;-3.43;100.00;100937.22;4995462;28;20386;-62
2022/01/11 06:49:33;;;;;;;45.90;6.68;;;;;;;-3.54;100.00;100937.19;4989137;28;20041;-63
2022/01/11 06:51:59;;;;;;;29.05;5.97;;;;;;;-3.49;100.00;100938.53;4991087;28;20516;-61
2022/01/11 06:54:24;;;;;;;63.45;6.57;;;;;;;-3.52;100.00;100943.13;4995120;28;20491;-63
2022/01/11 06:56:50;;;;;;;17.63;7.05;;;;;;;-3.46;100.00;100950.56;4991769;28;20046;-62
2022/01/11 06:59:15;;;;;;;46.78;7.10;;;;;;;-3.41;100.00;100956.31;4988360;28;20041;-62
2022/01/11 07:01:41;;;;;;;118.70;8.02;;;;;;;-3.61;100.00;100962.16;4998603;28;20519;-62
2022/01/11 07:04:06;;;;;;;28.55;6.57;;;;;;;-3.45;100.00;100956.66;4979978;28;20096;-62
2022/01/11 07:06:32;;;;;;;53.42;8.38;;;;;;;-3.44;100.00;100959.16;4985095;28;20508;-62
2022/01/11 07:08:57;;;;;;;61.45;10.00;;;;;;;-3.59;100.00;100960.25;4992705;28;20316;-62
2022/01/11 07:11:24;;;;;;;48.80;7.50;;;;;;;-3.74;100.00;100970.03;4990085;28;20543;-63
2022/01/11 07:13:49;;;;;;;63.78;6.30;;;;;;;-4.16;100.00;100966.81;4996419;28;20033;-62
2022/01/11 07:16:15;;;;;;;73.70;7.43;;;;;;;-3.95;100.00;100973.19;4994033;28;20054;-62
2022/01/11 07:18:41;;;;;;;20.48;4.40;;;;;;;-4.27;100.00;100975.41;4991142;28;20120;-63
2022/01/11 07:21:06;;;;;;;35.13;5.63;;;;;;;-4.10;100.00;100976.88;5006395;28;20054;-62
2022/01/11 07:23:31;;;;;;;40.03;6.47;;;;;;;-3.96;100.00;100981.19;4995194;28;20357;-62
2022/01/11 07:25:57;;;;;;;90.05;6.97;;;;;;;-3.98;100.00;100996.16;4992926;28;20042;-62
2022/01/11 07:28:23;;;;;;;43.55;6.20;;;;;;;-3.99;100.00;100991.88;4992330;28;20065;-62
2022/01/11 07:30:50;;;;;;;23.00;5.50;;;;;;;-3.93;100.00;100988.81;4988966;28;20045;-62
2022/01/11 07:33:15;;;;;;;66.95;6.63;;;;;;;-4.00;100.00;100984.94;4994652;28;20416;-63
2022/01/11 07:35:40;;;;;;;72.07;6.40;;;;;;;-4.19;100.00;100982.75;5023903;28;20041;-63
2022/01/11 07:38:06;;;;;;;100.72;8.10;;;;;;;-4.18;100.00;100994.91;5011356;28;20034;-62
2022/01/11 07:40:31;;;;;;;58.00;7.05;;;;;;;-4.07;100.00;100996.78;4996690;28;20050;-63
2022/01/11 07:42:57;;;;;;;80.80;7.30;;;;;;;-4.23;100.00;100995.19;4985586;28;20038;-62
2022/01/11 07:45:22;;;;;;;72.47;7.05;;;;;;;-4.06;100.00;101001.09;4996379;28;20050;-62
2022/01/11 07:47:48;;;;;;;69.07;6.00;;;;;;;-4.12;100.00;101005.81;4994349;28;20050;-62
2022/01/11 07:50:13;;;;;;;45.30;5.40;;;;;;;-4.20;100.00;101005.47;4991219;28;20084;-62
2022/01/11 07:52:39;;;;;;;86.82;5.95;;;;;;;-3.96;100.00;101015.22;4997112;28;20036;-62
2022/01/11 07:55:04;;;;;;;90.50;8.25;;;;;;;-4.21;100.00;101018.69;4998888;28;20030;-62
2022/01/11 07:57:30;;;;;;;46.20;5.57;;;;;;;-4.16;100.00;101013.97;4996309;28;20556;-63
2022/01/11 07:59:55;;;;;;;71.75;7.88;;;;;;;-4.34;100.00;101022.13;4989993;28;20027;-64
2022/01/11 08:02:23;;;;;;;92.85;7.30;;;;;;;-4.04;100.00;101023.59;5023182;28;20436;-62
2022/01/11 08:04:48;;;;;;;101.43;8.02;;;;;;;-3.93;100.00;101033.34;4988225;28;20747;-62
2022/01/11 08:07:17;;;;;;;72.35;6.93;;;;;;;-4.00;100.00;101034.72;4991083;28;20546;-63
2022/01/11 08:09:43;;;;;;;96.72;7.50;;;;;;;-3.75;100.00;101045.19;5008791;28;20021;-63
2022/01/11 08:12:08;;;;;;;97.28;8.10;;;;;;;-4.01;100.00;101041.72;4989264;28;20105;-62
2022/01/11 08:14:34;;;;;;;105.25;8.63;;;;;;;-4.01;100.00;101048.75;4987517;28;20064;-63
2022/01/11 08:16:59;;;;;;;135.35;9.00;;;;;;;-4.06;100.00;101050.84;4969935;28;20093;-64
2022/01/11 08:19:26;;;;;;;77.47;7.63;;;;;;;-4.12;100.00;101046.84;4983606;28;20124;-61
2022/01/11 08:21:53;;;;;;;66.18;8.02;;;;;;;-4.10;100.00;101044.13;4979717;28;20057;-62
2022/01/11 08:24:19;;;;;;;77.88;7.88;;;;;;;-3.94;100.00;101057.88;4992840;28;20017;-62
2022/01/11 08:26:44;;;;;;;91.78;8.40;;;;;;;-3.96;100.00;101059.75;4992406;28;20042;-62
2022/01/11 08:29:09;;;;;;;95.43;8.57;;;;;;;-4.00;100.00;101063.53;4977617;28;20475;-62
2022/01/11 08:31:35;;;;;;;50.85;8.55;;;;;;;-3.90;100.00;101061.94;4989421;28;20049;-63
2022/01/11 08:34:00;;;;;;;58.90;8.85;;;;;;;-4.18;100.00;101061.19;4994235;28;20037;-63
2022/01/11 08:36:26;;;;;;;79.82;7.57;;;;;;;-4.18;100.00;101057.75;5018156;28;20073;-61
2022/01/11 08:38:51;;;;;;;20.02;4.75;;;;;;;-3.92;100.00;101069.06;4994699;28;20026;-63
2022/01/11 08:41:22;;;;;;;55.80;7.57;;;;;;;-3.90;100.00;101072.44;4988649;28;20081;-64
2022/01/11 08:43:47;;;;;;;57.53;8.43;;;;;;;-3.70;100.00;101073.69;4993787;28;20092;-62
2022/01/11 08:46:16;;;;;;;51.78;6.70;;;;;;;-3.70;100.00;101073.69;4985494;28;20046;-63
2022/01/11 08:48:41;;;;;;;48.25;6.43;;;;;;;-3.73;100.00;101069.50;4988438;28;20022;-63
2022/01/11 08:51:07;;;;;;;38.45;6.30;;;;;;;-4.36;100.00;101071.13;4986561;28;20088;-62
2022/01/11 08:53:32;;;;;;;11.13;2.38;;;;;;;-4.13;100.00;101072.19;5023310;28;20020;-64
2022/01/11 08:55:58;;;;;;;10.68;5.13;;;;;;;-3.92;100.00;101064.69;4993875;28;20042;-63
2022/01/11 08:58:23;;;;;;;26.50;6.53;;;;;;;-3.73;100.00;101072.13;5004123;28;20448;-62
2022/01/11 09:00:49;;;;;;;60.28;7.53;;;;;;;-4.22;100.00;101078.06;4988312;28;20093;-62
2022/01/11 09:03:15;;;;;;;38.80;6.55;;;;;;;-4.26;100.00;101076.59;5006436;28;20029;-61
2022/01/11 09:05:41;;;;;;;9.13;3.95;;;;;;;-4.37;100.00;101068.59;5008963;28;20408;-62
2022/01/11 09:08:06;;;;;;;30.65;6.60;;;;;;;-3.95;100.00;101071.91;5013638;28;20065;-62
2022/01/11 09:10:32;;;;;;;36.50;7.45;;;;;;;-3.99;100.00;101078.31;4987874;28;20058;-64
2022/01/11 09:12:57;;;;;;;25.50;6.13;;;;;;;-3.79;100.00;101083.03;4995187;28;20143;-61
2022/01/11 09:15:23;;;;;;;29.27;6.05;;;;;;;-3.92;100.00;101090.03;4987983;28;20484;-62
2022/01/11 09:17:49;;;;;;;19.60;7.03;;;;;;;-3.91;100.00;101086.47;5025345;28;20038;-61
2022/01/11 09:20:16;;;;;;;49.17;6.32;;;;;;;-3.86;100.00;101094.03;4988873;28;20039;-61
2022/01/11 09:22:42;;;;;;;57.15;7.55;;;;;;;-3.85;100.00;101086.06;5002027;28;20025;-62
2022/01/11 09:25:08;;;;;;;21.98;6.70;;;;;;;-3.70;100.00;101085.00;4997857;28;20030;-62
2022/01/11 09:27:33;;;;;;;45.00;7.20;;;;;;;-3.59;100.00;101086.06;4999348;28;20445;-61
2022/01/11 09:29:59;;;;;;;27.08;10.15;;;;;;;-3.28;100.00;101079.53;4993122;28;20044;-63
2022/01/11 09:32:25;;;;;;;31.25;8.85;;;;;;;-3.20;100.00;101086.84;4998449;28;20054;-60
2022/01/11 09:34:50;;;;;;;50.42;7.70;;;;;;;-3.17;100.00;101091.88;4989886;28;20034;-61
2022/01/11 09:37:16;;;;;;;84.00;7.80;;;;;;;-3.80;100.00;101088.38;4997553;28;20072;-62
2022/01/11 09:39:43;;;;;;;16.02;4.95;;;;;;;-3.99;100.00;101088.78;5000381;28;20033;-61
2022/01/11 09:42:08;;;;;;;31.08;6.80;;;;;;;-3.90;100.00;101082.91;5003317;28;20049;-62
2022/01/11 09:44:35;;;;;;;31.58;5.78;;;;;;;-3.79;100.00;101085.66;4982622;28;20030;-59
2022/01/11 09:47:00;;;;;;;49.47;6.80;;;;;;;-3.55;100.00;101090.16;4996767;28;20042;-60
2022/01/11 09:49:26;;;;;;;37.35;7.13;;;;;;;-3.30;100.00;101092.72;4992376;28;20061;-60
2022/01/11 09:51:52;;;;;;;37.58;7.85;;;;;;;-3.30;100.00;101087.50;4996743;28;20584;-60
2022/01/11 09:54:19;;;;;;;34.95;8.85;;;;;;;-3.32;100.00;101089.41;4989851;28;20636;-60
2022/01/11 09:56:44;;;;;;;57.10;8.25;;;;;;;-3.23;100.00;101095.78;4992518;28;20046;-60
2022/01/11 09:59:10;;;;;;;20.98;7.53;;;;;;;-3.05;100.00;101091.00;4999617;28;20042;-60
2022/01/11 10:01:36;;;;;;;39.85;7.43;;;;;;;-3.19;100.00;101089.38;4993485;28;20042;-60
2022/01/11 10:04:01;;;;;;;53.20;8.30;;;;;;;-3.20;100.00;101092.09;4992434;28;20042;-60
2022/01/11 10:06:27;;;;;;;34.25;7.63;;;;;;;-3.00;100.00;101088.91;4989160;28;20163;-61
2022/01/11 10:09:16;;;;;;;33.63;6.50;;;;;;;-2.96;100.00;101092.16;4995455;28;20025;-61
2022/01/11 10:11:43;;;;;;;27.15;6.47;;;;;;;-3.04;100.00;101087.47;4994533;28;20049;-60
2022/01/11 10:14:31;;;;;;;39.38;7.72;;;;;;;-3.06;100.00;101089.34;5017044;28;20621;-60
2022/01/11 10:17:07;;;;;;;32.17;5.72;;;;;;;-3.42;100.00;101080.50;4990621;28;20096;-60
2022/01/11 10:19:32;;;;;;;46.58;6.60;;;;;;;-3.48;100.00;101079.13;4995879;28;20037;-60
2022/01/11 10:21:59;;;;;;;23.52;4.20;;;;;;;-3.73;100.00;101079.16;4995512;28;20038;-60
2022/01/11 10:24:32;;;;;;;37.58;7.45;;;;;;;-3.57;100.00;101073.69;4993998;28;20548;-60
2022/01/11 10:26:57;;;;;;;34.40;7.43;;;;;;;-3.14;100.00;101070.69;5010253;28;20104;-59
2022/01/11 10:29:36;;;;;;;29.83;7.05;;;;;;;-3.22;100.00;101066.00;4995320;28;20488;-60
2022/01/11 10:32:21;;;;;;;44.42;6.80;;;;;;;-3.49;100.00;101069.59;4992760;28;20048;-61
2022/01/11 10:34:49;;;;;;;16.45;5.68;;;;;;;-3.56;100.00;101080.63;4995809;28;21017;-62
2022/01/11 10:37:34;;;;;;;42.97;7.10;;;;;;;-3.45;100.00;101072.84;4992854;28;20046;-61
2022/01/11 10:40:27;;;;;;;48.50;7.63;;;;;;;-3.44;100.00;101069.28;4987516;28;20046;-61
2022/01/11 10:42:55;;;;;;;49.53;8.02;;;;;;;-3.25;100.00;101064.41;4991835;28;20030;-61
2022/01/11 10:45:29;;;;;;;79.38;7.78;;;;;;;-3.17;100.00;101061.25;4982684;28;20055;-61
2022/01/11 10:48:00;;;;;;;19.15;6.40;;;;;;;-2.87;100.00;101058.22;4996339;28;20137;-61
2022/01/11 10:50:28;;;;;;;46.97;7.35;;;;;;;-3.49;100.00;101063.53;4977811;28;20141;-61
2022/01/11 10:52:57;;;;;;;41.90;6.00;;;;;;;-3.49;100.00;101060.91;4975472;28;20041;-61
2022/01/11 10:55:25;;;;;;;48.42;8.50;;;;;;;-3.29;100.00;101067.38;4974067;28;20410;-61
2022/01/11 10:57:55;;;;;;;106.68;8.00;;;;;;;-3.28;100.00;101069.88;4977206;28;20034;-61
2022/01/11 11:00:32;;;;;;;97.10;8.65;;;;;;;-3.52;100.00;101061.09;4972201;28;20605;-61
2022/01/11 11:03:01;;;;;;;104.78;8.85;;;;;;;-3.31;100.00;101054.34;4967509;28;20496;-62